createdAt,value
2023-10-12T00:04:24.810Z,0
2023-10-12T00:14:31.362Z,0
2023-10-12T00:24:37.933Z,0
2023-10-12T00:44:50.965Z,0
2023-10-12T00:54:57.485Z,0
2023-10-12T01:05:04.103Z,0
2023-10-12T01:15:10.676Z,0
2023-10-12T01:25:17.286Z,0
2023-10-12T01:35:23.888Z,0
2023-10-12T01:45:29.665Z,0
2023-10-12T01:55:36.309Z,0
2023-10-12T02:05:43.018Z,0
2023-10-12T02:15:49.762Z,0
2023-10-12T02:25:56.534Z,0
2023-10-12T02:36:03.308Z,0
2023-10-12T02:46:10.104Z,0
2023-10-12T02:56:16.924Z,0
2023-10-12T03:06:23.708Z,0
2023-10-12T03:16:30.540Z,0
2023-10-12T03:26:37.405Z,0
2023-10-12T03:46:51.180Z,0
2023-10-12T03:56:58.020Z,0
2023-10-12T04:07:04.833Z,0
2023-10-12T04:17:11.698Z,0
2023-10-12T04:27:18.550Z,0
2023-10-12T04:37:25.413Z,0
2023-10-12T04:47:32.231Z,0
2023-10-12T04:57:39.060Z,0
2023-10-12T05:07:45.921Z,0
2023-10-12T05:17:52.794Z,0
2023-10-12T05:27:59.702Z,0
2023-10-12T05:38:06.592Z,0
2023-10-12T05:48:13.466Z,0
2023-10-12T05:58:20.331Z,0
2023-10-12T06:08:27.172Z,0
2023-10-12T06:18:33.971Z,0
2023-10-12T06:28:40.773Z,0
2023-10-12T06:38:47.650Z,0
2023-10-12T06:48:54.482Z,5
2023-10-12T06:59:01.371Z,5
2023-10-12T07:09:08.293Z,0
2023-10-12T07:19:15.246Z,0
2023-10-12T07:29:22.185Z,5
2023-10-12T07:39:29.142Z,11
2023-10-12T07:49:36.127Z,16
2023-10-12T07:59:43.429Z,22
2023-10-12T08:09:50.744Z,22
2023-10-12T08:19:58.104Z,16
2023-10-12T08:30:05.484Z,5
2023-10-12T08:40:12.839Z,16
2023-10-12T08:50:20.145Z,33
2023-10-12T09:00:27.736Z,22
2023-10-12T09:10:34.849Z,28
2023-10-12T09:20:42.198Z,22
2023-10-12T09:30:49.536Z,67
2023-10-12T09:40:56.934Z,61
2023-10-12T09:51:04.280Z,39
2023-10-12T10:01:11.650Z,45
2023-10-12T10:11:19.634Z,56
2023-10-12T10:21:27.151Z,50
2023-10-12T10:31:35.079Z,67
2023-10-12T10:41:43.029Z,45
2023-10-12T10:51:50.971Z,39
2023-10-12T11:01:58.893Z,39
2023-10-12T11:12:06.841Z,39
2023-10-12T11:22:14.778Z,73
2023-10-12T11:32:22.772Z,56
2023-10-12T11:42:30.586Z,39
2023-10-12T11:52:38.473Z,50
2023-10-12T12:02:46.352Z,39
2023-10-12T12:12:54.193Z,50
2023-10-12T12:23:02.022Z,45
2023-10-12T12:33:09.469Z,61
2023-10-12T12:43:17.071Z,67
2023-10-12T12:53:23.929Z,129
2023-10-12T13:03:31.083Z,67
2023-10-12T13:13:38.251Z,78
2023-10-12T13:23:45.473Z,50
2023-10-12T13:33:52.588Z,16
2023-10-12T13:43:59.783Z,16
2023-10-12T13:54:06.965Z,33
2023-10-12T14:04:14.069Z,22
2023-10-12T14:14:21.157Z,28
2023-10-12T14:24:28.250Z,22
2023-10-12T14:34:35.406Z,16
2023-10-12T14:44:42.513Z,11
2023-10-12T14:54:49.578Z,28
2023-10-12T15:04:56.662Z,28
2023-10-12T15:15:03.772Z,11
2023-10-12T15:25:10.090Z,5
2023-10-12T15:35:17.206Z,0
2023-10-12T15:45:24.478Z,0
2023-10-12T15:55:31.410Z,0
2023-10-12T16:05:38.609Z,0
2023-10-12T16:15:45.638Z,0
2023-10-12T16:25:52.730Z,0
2023-10-12T16:35:59.886Z,5
2023-10-12T16:46:07.118Z,0
2023-10-12T16:56:14.333Z,0
2023-10-12T17:06:21.361Z,0
2023-10-12T17:16:28.466Z,0
2023-10-12T17:26:35.607Z,0
2023-10-12T17:36:42.828Z,0
2023-10-12T17:46:49.901Z,0
2023-10-12T17:56:57.079Z,0
2023-10-12T18:07:04.267Z,0
2023-10-12T18:17:11.364Z,0
2023-10-12T18:27:18.447Z,0
2023-10-12T18:37:25.522Z,0
2023-10-12T18:47:32.644Z,0
2023-10-12T18:57:39.769Z,0
2023-10-12T19:07:46.937Z,0
2023-10-12T19:17:54.016Z,0
2023-10-12T19:28:01.086Z,0
2023-10-12T19:38:08.168Z,0
2023-10-12T19:48:15.296Z,0
2023-10-12T19:58:22.392Z,0
2023-10-12T20:08:29.495Z,0
2023-10-12T20:18:36.704Z,0
2023-10-12T20:28:43.777Z,0
2023-10-12T20:38:51.081Z,0
2023-10-12T20:48:58.029Z,0
2023-10-12T20:59:05.109Z,0
2023-10-12T21:09:12.180Z,0
2023-10-12T21:19:19.269Z,0
2023-10-12T21:29:26.264Z,0
2023-10-12T21:39:34.041Z,0
2023-10-12T21:49:41.632Z,0
2023-10-12T21:59:49.372Z,0
2023-10-12T22:09:56.666Z,0
2023-10-12T22:20:04.415Z,0
2023-10-12T22:30:12.130Z,0
2023-10-12T22:40:19.890Z,0
2023-10-12T22:50:27.577Z,0
2023-10-12T23:00:35.288Z,0
2023-10-12T23:10:43.117Z,0
2023-10-12T23:20:50.712Z,0
2023-10-12T23:30:58.383Z,0
2023-10-12T23:41:06.035Z,0
2023-10-12T23:51:13.694Z,0
